• Join FlightAware (Why Join?)
  • Login
  • US Flag 
10:34AM EDT


 

Airport Tracker/Info


-or-


 

Live Flight TrackerFlight Track Log ✈ UAL4431 ✈ 03-May-2013 ✈ KIAH - KLFT

Flight Track Log - Related Links

Times and Time Zones

All times are in EDT time to prevent confusion due to time zone crossing. See the UAL4431 flight status page for this flight to view local times or setup timezone preferences in your user account.

Time Position Orientation Groundspeed Altitude Reporting Facility
EDT Latitude Longitude Course Direction KTS MPH feet Rate Location/Type
08:25PM 29.9767 -95.3008 90° East 166 191 700  Level Houston Center
08:25PM 29.9647 -95.2853 132° Southeast 199 229 1,600 2,040 Climbing Houston Center
08:26PM 29.8972 -95.2356 147° Southeast 266 306 3,800 1,500 Climbing Houston Center
08:27PM 29.8803 -95.2194 140° Southeast 264 304 4,000 2,220 Climbing Houston Center
08:27PM 29.8336 -95.1831 146° Southeast 278 320 6,100 3,180 Climbing Houston Center
08:28PM 29.9834 -94.9845 90° East  Level FlightAware Approximate
08:28PM 29.8061 -95.1522 136° Southeast 287 330 7,300  Level Houston Center
08:28PM 29.8011 -95.1053 97° East 296 341 8,600 2,280 Climbing Houston Center
08:29PM 29.9834 -94.8683 90° East  Level FlightAware Approximate
08:29PM 29.8131 -95.0597 73° East 288 331 9,700  Level Houston Center
08:29PM 29.8253 -95.0058 75° East 313 360 10,800 1,500 Climbing Houston Center
08:30PM 29.9834 -94.7520 90° East  Level FlightAware Approximate
08:30PM 29.8386 -94.9592 72° East 323 372 11,300  Level Houston Center
08:31PM 29.8794 -94.8497 67° East 367 422 12,900 1,500 Climbing Houston Center
08:32PM 29.9247 -94.7367 65° Northeast 386 444 14,500 1,620 Climbing Houston Center
08:33PM 29.9708 -94.6197 66° East 399 459 16,300 1,620 Climbing Houston Center
08:34PM 29.9903 -94.4683 82° East 423 487 17,900 1,260 Climbing Houston Center
08:35PM 29.9958 -94.3281 87° East 436 502 18,900 480 Climbing Houston Center
08:36PM 30.0114 -94.1803 83° East 462 532 19,000  Climbing Houston Center
08:37PM 30.0306 -94.0300 82° East 474 545 19,000  Level Houston Center
08:38PM 30.0489 -93.8800 82° East 474 545 19,000  Level Houston Center
08:39PM 30.0672 -93.7325 82° East 470 541 19,000  Level Houston Center
08:40PM 30.0886 -93.5558 82° East 470 541 19,000  Level Houston Center
08:41PM 30.1053 -93.4078 83° East 472 543 19,000  Level Houston Center
08:42PM 30.1231 -93.2611 82° East 470 541 19,000 -420 Level Houston Center
08:43PM 30.1394 -93.1139 83° East 468 539 18,200 -1,380 Descending Houston Center
08:44PM 30.1494 -92.9394 86° East 458 527 16,200 -2,040 Descending Houston Center
08:45PM 30.1558 -92.7994 87° East 445 512 14,100 -2,280 Descending Houston Center
08:46PM 30.1617 -92.6683 87° East 423 487 11,600 -1,500 Descending Houston Center
08:47PM 30.1531 -92.5450 95° East 395 455 11,000 -660 Descending Houston Center
08:48PM 30.1486 -92.4364 93° East 356 410 10,300 -1,320 Descending Houston Center
08:50PM 30.1417 -92.3378 95° East 320 368 8,400 -2,040 Descending Houston Center
08:51PM 30.1358 -92.2450 94° East 301 346 6,100 -2,400 Descending Houston Center
08:52PM 30.1311 -92.1414 93° East 273 314 3,500 -2,520 Descending Houston Center